Time;durP1;ratioP1;P1;durP2;ratioP2;P2;SDS_P1;SDS_P2;PMS_P1;PMS_P2;Temp;Humidity;BMP_temperature;BMP_pressure;BME280_temperature;BME280_humidity;BME280_pressure;Samples;Min_cycle;Max_cycle;Signal;HPM_P1;HPM_P2
2022/03/24 00:00:08;;;;;;;33.75;22.13;;;4.60;99.90;;;4.02;100.00;98669.44;5006368;28;20054;-73
2022/03/24 00:02:36;;;;;;;31.58;20.65;;;4.60;99.90;;;4.07;100.00;98662.56;5010288;28;20053;-73
2022/03/24 00:05:04;;;;;;;28.63;19.65;;;4.60;99.90;;;4.10;100.00;98662.56;5013037;28;20046;-73
2022/03/24 00:07:31;;;;;;;34.10;22.00;;;4.50;99.90;;;4.10;100.00;98662.56;5009023;28;20511;-73
2022/03/24 00:09:58;;;;;;;30.75;20.33;;;4.60;99.90;;;4.06;100.00;98665.97;5025258;28;20116;-73
2022/03/24 00:12:27;;;;;;;33.35;21.40;;;4.50;99.90;;;3.78;100.00;98664.22;5008460;28;20136;-73
2022/03/24 00:14:53;;;;;;;32.95;21.55;;;4.50;99.90;;;3.70;100.00;98667.66;5017736;28;20109;-73
2022/03/24 00:17:20;;;;;;;35.88;23.67;;;4.40;99.90;;;3.66;100.00;98669.34;5005183;28;20045;-73
2022/03/24 00:19:48;;;;;;;38.83;24.58;;;4.30;99.90;;;3.68;100.00;98664.22;5003835;28;20120;-73
2022/03/24 00:22:14;;;;;;;35.13;21.85;;;4.30;99.90;;;3.58;100.00;98671.06;5004725;28;20050;-72
2022/03/24 00:24:42;;;;;;;32.88;22.13;;;4.30;99.90;;;3.54;100.00;98661.63;5003991;28;20061;-73
2022/03/24 00:27:09;;;;;;;34.75;22.60;;;4.30;99.90;;;3.50;100.00;98668.44;5007153;28;20047;-73
2022/03/24 00:29:36;;;;;;;38.05;24.20;;;4.30;99.90;;;3.56;100.00;98660.78;5005054;28;20150;-73
2022/03/24 00:32:03;;;;;;;32.85;22.10;;;4.20;99.90;;;3.69;100.00;98659.06;5001267;28;20114;-73
2022/03/24 00:34:31;;;;;;;33.97;22.45;;;4.20;99.90;;;3.62;100.00;98661.63;5006567;28;20080;-73
2022/03/24 00:36:58;;;;;;;35.30;23.27;;;4.20;99.90;;;3.67;100.00;98663.38;5007710;28;20091;-72
2022/03/24 00:39:25;;;;;;;33.33;22.13;;;4.20;99.90;;;3.67;100.00;98660.81;5010151;28;20148;-74
2022/03/24 00:41:52;;;;;;;33.28;20.05;;;4.20;99.90;;;3.63;100.00;98660.81;5004492;28;20243;-73
2022/03/24 00:44:21;;;;;;;30.60;20.98;;;4.20;99.90;;;3.55;100.00;98661.59;5005381;28;20054;-73
2022/03/24 00:46:47;;;;;;;29.60;19.83;;;4.10;99.90;;;3.65;100.00;98659.06;5007728;28;20054;-73
2022/03/24 00:49:15;;;;;;;31.70;20.42;;;4.20;99.90;;;3.44;100.00;98654.72;5007278;28;20090;-73
2022/03/24 00:51:44;;;;;;;29.85;20.63;;;4.10;99.90;;;3.41;100.00;98657.31;5009589;28;20096;-73
2022/03/24 00:54:11;;;;;;;31.67;21.65;;;4.10;99.90;;;3.33;100.00;98654.69;5005076;28;20141;-72
2022/03/24 00:56:38;;;;;;;32.45;21.80;;;4.00;99.90;;;3.34;100.00;98652.13;5002489;28;20479;-73
2022/03/24 00:59:05;;;;;;;28.00;20.13;;;4.00;99.90;;;3.49;100.00;98643.63;5005443;28;20077;-72
2022/03/24 01:01:33;;;;;;;30.33;20.98;;;4.00;99.90;;;3.50;100.00;98645.34;5003996;28;20069;-73
2022/03/24 01:04:00;;;;;;;30.52;21.42;;;4.10;99.90;;;3.48;100.00;98646.19;5008465;28;20042;-74
2022/03/24 01:06:27;;;;;;;28.52;19.85;;;4.00;99.90;;;3.34;100.00;98648.72;5003250;28;20145;-72
2022/03/24 01:08:54;;;;;;;28.58;20.38;;;4.00;99.90;;;3.23;100.00;98638.41;5017779;28;20064;-73
2022/03/24 01:11:21;;;;;;;29.40;19.65;;;3.90;99.90;;;3.23;100.00;98647.81;5006929;28;20152;-72
2022/03/24 01:13:49;;;;;;;29.60;20.23;;;3.80;99.90;;;3.23;100.00;98647.81;5005085;28;20130;-73
2022/03/24 01:16:23;;;;;;;34.00;21.50;;;3.80;99.90;;;3.21;100.00;98646.94;5009583;28;20136;-72
2022/03/24 01:18:51;;;;;;;35.25;22.33;;;3.80;99.90;;;3.13;100.00;98647.78;5007148;28;20054;-73
2022/03/24 01:21:18;;;;;;;29.15;20.70;;;3.80;99.90;;;3.06;100.00;98643.47;5005768;28;20077;-72
2022/03/24 01:23:46;;;;;;;27.90;20.58;;;3.70;99.90;;;3.10;100.00;98641.78;5004040;28;20725;-72
2022/03/24 01:26:15;;;;;;;36.17;22.30;;;3.70;99.90;;;3.14;100.00;98640.94;5010651;28;20121;-74
2022/03/24 01:28:42;;;;;;;33.88;22.17;;;3.70;99.90;;;2.98;100.00;98641.72;5017941;28;20073;-71
2022/03/24 01:31:10;;;;;;;38.13;24.55;;;3.70;99.90;;;2.99;100.00;98639.19;5002823;28;20563;-72
2022/03/24 01:33:40;;;;;;;34.40;23.88;;;3.70;99.90;;;3.00;100.00;98633.19;5004322;28;20108;-74
2022/03/24 01:36:09;;;;;;;30.25;22.80;;;3.60;99.90;;;3.06;100.00;98635.78;5007256;28;20124;-73
2022/03/24 01:38:37;;;;;;;35.38;24.88;;;3.70;99.90;;;2.97;100.00;98627.19;5005074;28;20169;-73
2022/03/24 01:41:07;;;;;;;38.90;25.23;;;3.70;99.90;;;2.83;100.00;98632.22;5005007;28;20540;-73
2022/03/24 01:43:35;;;;;;;35.38;24.00;;;3.60;99.90;;;2.87;100.00;98632.28;5005573;28;20109;-74
2022/03/24 01:46:04;;;;;;;36.33;24.70;;;3.60;99.90;;;2.91;100.00;98633.13;5008672;28;20133;-73
2022/03/24 01:48:31;;;;;;;36.15;24.20;;;3.70;99.90;;;2.99;100.00;98625.47;5006523;28;20098;-72
2022/03/24 01:50:58;;;;;;;33.30;24.00;;;3.70;99.90;;;3.14;100.00;98621.25;5005957;28;20141;-74
2022/03/24 01:53:25;;;;;;;33.58;23.75;;;3.80;99.90;;;3.07;100.00;98622.09;5006584;28;20060;-73
2022/03/24 01:55:54;;;;;;;29.35;21.08;;;3.80;99.90;;;2.94;100.00;98620.31;4985664;28;20044;-72
2022/03/24 01:58:23;;;;;;;25.27;20.58;;;3.80;99.90;;;2.93;100.00;98626.31;5008838;28;20045;-73
2022/03/24 02:00:51;;;;;;;26.02;20.42;;;3.70;99.90;;;2.86;100.00;98625.44;5002825;28;20045;-74
2022/03/24 02:03:21;;;;;;;28.08;21.55;;;3.60;99.90;;;2.86;100.00;98625.44;5011443;28;20042;-74
2022/03/24 02:05:48;;;;;;;29.73;20.77;;;3.60;99.90;;;2.96;100.00;98621.19;5012353;28;20053;-74
2022/03/24 02:08:15;;;;;;;31.23;21.33;;;3.60;99.90;;;2.80;100.00;98624.53;5013462;28;20185;-71
2022/03/24 02:10:42;;;;;;;31.42;20.50;;;3.60;99.90;;;2.79;100.00;98623.69;5002936;28;20057;-74
2022/03/24 02:13:09;;;;;;;27.30;19.60;;;3.60;99.90;;;2.91;100.00;98622.88;5004498;28;20077;-72
2022/03/24 02:15:37;;;;;;;29.65;21.50;;;3.60;99.90;;;2.80;100.00;98624.53;5005063;28;20376;-72
2022/03/24 02:18:09;;;;;;;27.52;20.38;;;3.60;99.90;;;2.87;100.00;98619.47;5003100;28;20046;-71
2022/03/24 02:20:36;;;;;;;27.25;19.73;;;3.60;99.90;;;2.64;100.00;98624.44;5018681;28;20056;-73
2022/03/24 02:23:03;;;;;;;26.10;18.92;;;3.60;99.90;;;2.88;100.00;98623.72;5002005;28;20118;-73
2022/03/24 02:25:32;;;;;;;28.75;19.58;;;3.50;99.90;;;2.79;100.00;98616.00;5006212;28;20599;-75
2022/03/24 02:28:02;;;;;;;30.33;20.30;;;3.50;99.90;;;2.83;100.00;98624.53;5008593;28;20065;-73
2022/03/24 02:30:30;;;;;;;26.50;18.70;;;3.50;99.90;;;2.80;100.00;98620.25;5010784;28;20073;-73
2022/03/24 02:32:57;;;;;;;27.38;19.67;;;3.50;99.90;;;2.78;100.00;98624.50;5002934;28;20090;-73
2022/03/24 02:35:25;;;;;;;34.47;22.35;;;3.50;99.90;;;2.71;100.00;98626.22;5005592;28;20129;-73
2022/03/24 02:37:52;;;;;;;33.05;21.88;;;3.50;99.90;;;2.68;100.00;98623.63;5005089;28;20076;-73
2022/03/24 02:40:20;;;;;;;32.10;22.33;;;3.40;99.90;;;2.64;100.00;98623.59;5008300;28;20045;-74
2022/03/24 02:42:47;;;;;;;32.67;22.58;;;3.40;99.90;;;2.73;100.00;98616.81;5005392;28;20050;-73
2022/03/24 02:45:15;;;;;;;33.70;22.88;;;3.40;99.90;;;2.69;100.00;98616.78;5003829;28;20074;-73
2022/03/24 02:47:44;;;;;;;29.02;19.67;;;3.40;99.90;;;2.52;100.00;98621.81;5005233;28;20102;-73
2022/03/24 02:50:11;;;;;;;29.98;19.75;;;3.30;99.90;;;2.52;100.00;98621.81;5004260;28;20098;-72
2022/03/24 02:52:38;;;;;;;26.85;19.02;;;3.20;99.90;;;2.46;100.00;98617.53;5002847;28;20132;-73
2022/03/24 02:55:07;;;;;;;32.75;20.48;;;3.20;99.90;;;2.47;100.00;98616.66;5009822;28;20054;-73
2022/03/24 02:57:35;;;;;;;27.25;19.70;;;3.20;99.90;;;2.41;100.00;98623.44;5009781;28;20088;-73
2022/03/24 03:00:04;;;;;;;29.98;19.83;;;3.10;99.90;;;2.49;100.00;98625.22;5008729;28;20062;-73
2022/03/24 03:02:31;;;;;;;26.67;16.98;;;3.20;99.90;;;2.50;100.00;98623.50;5021741;28;20081;-73
2022/03/24 03:05:01;;;;;;;29.48;16.95;;;3.10;99.90;;;2.27;100.00;98626.78;5006449;28;20057;-73
2022/03/24 03:07:28;;;;;;;28.33;18.25;;;3.10;99.90;;;2.25;100.00;98623.34;5026266;28;20054;-73
2022/03/24 03:09:55;;;;;;;30.58;18.17;;;3.00;99.90;;;2.37;100.00;98624.28;5024457;28;20072;-74
2022/03/24 03:12:22;;;;;;;29.58;17.77;;;3.00;99.90;;;2.40;100.00;98625.16;5007097;28;20052;-73
2022/03/24 03:14:49;;;;;;;30.23;19.23;;;3.00;99.90;;;2.34;100.00;98627.66;5003459;28;20122;-72
2022/03/24 03:17:18;;;;;;;31.00;17.08;;;3.10;99.90;;;2.39;100.00;98620.88;5005147;28;20503;-73
2022/03/24 03:19:46;;;;;;;28.55;17.60;;;3.10;99.90;;;2.35;100.00;98629.41;5005506;28;20046;-73
2022/03/24 03:22:17;;;;;;;29.02;17.20;;;3.00;99.90;;;2.41;100.00;98633.69;5005077;28;20173;-72
2022/03/24 03:24:44;;;;;;;28.45;17.70;;;3.00;99.90;;;2.32;100.00;98625.94;5004790;28;20543;-72
2022/03/24 03:27:12;;;;;;;26.30;17.05;;;2.90;99.90;;;2.24;100.00;98628.47;5017643;28;20112;-73
2022/03/24 03:29:41;;;;;;;25.77;16.15;;;2.90;99.90;;;2.24;100.00;98631.03;5003957;28;20046;-73
2022/03/24 03:32:10;;;;;;;25.88;17.13;;;2.90;99.90;;;2.21;100.00;98625.88;5010707;28;20130;-73
2022/03/24 03:34:38;;;;;;;29.38;17.58;;;2.90;99.90;;;2.15;100.00;98631.81;5022394;28;20080;-73
2022/03/24 03:37:05;;;;;;;28.17;18.70;;;2.90;99.90;;;2.02;100.00;98628.28;5006713;28;20053;-73
2022/03/24 03:39:32;;;;;;;29.05;17.85;;;2.80;99.90;;;2.10;100.00;98636.03;4994165;28;20151;-73
2022/03/24 03:41:59;;;;;;;27.05;17.00;;;2.80;99.90;;;2.18;100.00;98636.09;5004194;28;20076;-73
2022/03/24 03:44:27;;;;;;;28.48;17.60;;;2.80;99.90;;;2.03;100.00;98634.25;5024935;28;20054;-72
2022/03/24 03:46:54;;;;;;;25.33;16.88;;;2.70;99.90;;;2.10;100.00;98633.47;5012515;28;20073;-73
2022/03/24 03:49:21;;;;;;;29.17;18.17;;;2.70;99.90;;;1.94;100.00;98629.06;5003766;28;20639;-73
2022/03/24 03:51:54;;;;;;;32.53;18.80;;;2.70;99.90;;;1.98;100.00;98641.03;4998880;28;20440;-72
2022/03/24 03:54:21;;;;;;;29.33;18.50;;;2.60;99.90;;;2.05;100.00;98636.00;5006313;28;20050;-73
2022/03/24 03:56:48;;;;;;;32.45;19.67;;;2.60;99.90;;;1.97;100.00;98640.19;5016354;28;20232;-74
2022/03/24 03:59:15;;;;;;;27.88;17.27;;;2.70;99.90;;;2.02;100.00;98635.97;5010909;28;20151;-73
2022/03/24 04:01:45;;;;;;;27.65;17.73;;;2.60;99.90;;;2.04;100.00;98634.28;5009806;28;20129;-73
2022/03/24 04:04:13;;;;;;;33.15;17.60;;;2.60;99.90;;;1.88;100.00;98633.28;5003453;28;20070;-73
2022/03/24 04:06:41;;;;;;;29.67;18.38;;;2.60;99.90;;;1.69;100.00;98631.41;5007652;28;20053;-74
2022/03/24 04:09:08;;;;;;;27.58;18.60;;;2.50;99.90;;;1.78;100.00;98634.06;5007181;28;20117;-73
2022/03/24 04:11:36;;;;;;;27.25;17.58;;;2.50;99.90;;;1.75;100.00;98633.16;5003238;28;20041;-73
2022/03/24 04:14:04;;;;;;;30.48;18.85;;;2.50;99.90;;;1.67;100.00;98636.50;5022239;28;20120;-74
2022/03/24 04:16:32;;;;;;;30.77;18.45;;;2.40;99.90;;;1.79;100.00;98637.47;5005329;28;20050;-73
2022/03/24 04:18:59;;;;;;;34.53;18.92;;;2.40;99.90;;;1.58;100.00;98633.84;5009191;28;20098;-73
2022/03/24 04:21:27;;;;;;;34.45;19.55;;;2.40;99.90;;;1.73;100.00;98633.13;5010035;28;20138;-74
2022/03/24 04:23:54;;;;;;;31.95;18.17;;;2.40;99.90;;;1.80;100.00;98631.50;5008220;28;20073;-73
2022/03/24 04:26:22;;;;;;;30.70;18.33;;;2.40;99.90;;;1.81;100.00;98628.94;5004328;28;20644;-73
2022/03/24 04:28:49;;;;;;;27.85;18.63;;;2.40;99.90;;;1.77;100.00;98631.47;5005708;28;20369;-73
2022/03/24 04:31:16;;;;;;;29.90;18.45;;;2.40;99.90;;;1.73;100.00;98634.84;5011241;28;20141;-73
2022/03/24 04:33:44;;;;;;;31.27;19.80;;;2.40;99.90;;;1.70;100.00;98635.69;5007388;28;20544;-73
2022/03/24 04:36:12;;;;;;;28.95;17.92;;;2.30;99.90;;;1.65;100.00;98630.50;5003848;28;20050;-73
2022/03/24 04:38:39;;;;;;;30.23;17.73;;;2.30;99.90;;;1.50;100.00;98639.72;5007481;28;20121;-74
2022/03/24 04:41:06;;;;;;;31.73;19.15;;;2.30;99.90;;;1.53;100.00;98639.75;5004720;28;20053;-73
2022/03/24 04:43:34;;;;;;;27.60;18.00;;;2.30;99.90;;;1.50;100.00;98635.47;5009130;28;20125;-73
2022/03/24 04:46:02;;;;;;;29.02;19.10;;;2.20;99.90;;;1.46;100.00;98634.59;4995611;28;20145;-73
2022/03/24 04:48:36;;;;;;;30.55;18.58;;;2.20;99.90;;;1.42;100.00;98640.50;5008338;28;20046;-72
2022/03/24 04:51:07;;;;;;;32.88;19.40;;;2.20;99.90;;;1.30;100.00;98635.28;5004794;28;20042;-73
2022/03/24 04:53:35;;;;;;;31.48;20.42;;;2.10;99.90;;;1.20;100.00;98639.41;5008151;28;20050;-73
2022/03/24 04:56:02;;;;;;;29.38;18.58;;;2.10;99.90;;;1.41;100.00;98645.59;5007634;28;20042;-74
2022/03/24 04:58:32;;;;;;;33.33;19.08;;;2.20;99.90;;;1.26;100.00;98643.75;5003740;28;20089;-73
2022/03/24 05:00:59;;;;;;;32.13;19.38;;;2.10;99.90;;;1.39;100.00;98644.72;5018592;28;20073;-72
2022/03/24 05:03:26;;;;;;;40.95;24.17;;;2.10;99.90;;;1.42;100.00;98645.63;5006361;28;20108;-73
2022/03/24 05:05:54;;;;;;;39.65;22.65;;;2.10;99.90;;;1.44;100.00;98650.78;5001405;28;20046;-73
2022/03/24 05:08:21;;;;;;;58.08;30.17;;;2.10;99.90;;;1.44;100.00;98646.50;5006407;28;20519;-73
2022/03/24 05:10:48;;;;;;;38.42;24.15;;;2.10;99.90;;;1.41;100.00;98646.44;5009724;28;20057;-73
2022/03/24 05:13:15;;;;;;;35.42;21.67;;;2.10;99.90;;;1.29;100.00;98648.03;5009148;28;20081;-72
2022/03/24 05:15:43;;;;;;;34.53;20.35;;;2.00;99.90;;;1.27;100.00;98648.00;5010020;28;20492;-74
2022/03/24 05:18:10;;;;;;;34.85;21.08;;;1.90;99.90;;;1.17;100.00;98641.94;5006421;28;20120;-73
2022/03/24 05:20:37;;;;;;;35.63;21.27;;;1.90;99.90;;;1.14;100.00;98641.91;5006319;28;20057;-73
2022/03/24 05:23:05;;;;;;;36.55;21.23;;;1.90;99.90;;;1.24;100.00;98645.41;5007977;28;20097;-73
2022/03/24 05:25:32;;;;;;;35.88;21.77;;;1.90;99.90;;;1.28;100.00;98643.75;5005814;28;20057;-73
2022/03/24 05:27:59;;;;;;;34.20;22.10;;;1.90;99.90;;;1.25;100.00;98650.56;5004295;28;20861;-72
2022/03/24 05:30:27;;;;;;;38.08;22.60;;;1.90;99.90;;;1.22;100.00;98647.94;5020174;28;20104;-73
2022/03/24 05:32:55;;;;;;;40.17;22.90;;;1.90;99.90;;;1.19;100.00;98650.47;5005533;28;20137;-73
2022/03/24 05:35:22;;;;;;;49.53;27.25;;;1.90;99.90;;;1.28;100.00;98652.28;5004774;28;20054;-74
2022/03/24 05:37:49;;;;;;;46.28;26.55;;;1.90;99.90;;;1.19;100.00;98653.03;5005884;28;20066;-74
2022/03/24 05:40:17;;;;;;;46.65;24.75;;;1.90;99.90;;;1.21;100.00;98661.59;5006611;28;20090;-73
2022/03/24 05:42:44;;;;;;;41.58;25.02;;;1.90;99.90;;;1.27;100.00;98650.56;5004287;28;20057;-71
2022/03/24 05:45:13;;;;;;;37.03;23.15;;;2.00;99.90;;;1.21;100.00;98653.91;5020621;28;20050;-71
2022/03/24 05:47:40;;;;;;;39.35;23.15;;;2.00;99.90;;;1.28;100.00;98651.41;5007785;28;20049;-74
2022/03/24 05:50:08;;;;;;;38.72;22.55;;;2.00;99.90;;;1.16;100.00;98655.53;5017100;28;20103;-74
2022/03/24 05:52:35;;;;;;;41.13;25.35;;;2.00;99.90;;;1.03;100.00;98654.53;5004257;28;20081;-74
2022/03/24 05:55:02;;;;;;;40.95;24.85;;;1.90;99.90;;;1.10;100.00;98654.63;5005465;28;20140;-73
2022/03/24 05:57:29;;;;;;;52.33;28.67;;;1.90;99.90;;;1.03;100.00;98657.09;5002671;28;20177;-73
2022/03/24 05:59:56;;;;;;;49.25;28.48;;;2.00;99.90;;;1.06;100.00;98656.28;5003016;28;20077;-72
2022/03/24 06:02:24;;;;;;;44.75;26.85;;;1.90;99.90;;;1.12;100.00;98660.59;5006164;28;20082;-72
2022/03/24 06:04:53;;;;;;;43.92;27.63;;;2.00;99.90;;;1.24;100.00;98660.75;5015779;28;20058;-72
2022/03/24 06:07:20;;;;;;;45.20;27.00;;;2.00;99.90;;;1.20;100.00;98666.69;5004840;28;20049;-71
2022/03/24 06:09:49;;;;;;;43.67;25.77;;;2.10;99.90;;;1.20;100.00;98664.13;5002531;28;20515;-72
2022/03/24 06:12:18;;;;;;;41.13;24.85;;;2.10;99.90;;;1.20;100.00;98666.69;5005422;28;20061;-72
2022/03/24 06:14:45;;;;;;;44.90;27.35;;;2.10;99.90;;;1.27;100.00;98665.91;5004921;28;20113;-73
2022/03/24 06:17:12;;;;;;;46.25;27.73;;;2.20;99.90;;;1.16;100.00;98660.66;5005060;28;20054;-74
2022/03/24 06:19:39;;;;;;;42.50;26.42;;;2.20;99.90;;;1.18;100.00;98664.09;5004607;28;20061;-73
2022/03/24 06:22:07;;;;;;;47.80;29.58;;;2.20;99.90;;;1.25;100.00;98662.47;5006286;28;20088;-73
2022/03/24 06:24:34;;;;;;;47.05;29.20;;;2.20;99.90;;;1.36;100.00;98666.00;5004472;28;20096;-73
2022/03/24 06:27:02;;;;;;;45.55;27.15;;;2.30;99.90;;;1.44;100.00;98663.56;5002419;28;20053;-73
2022/03/24 06:29:29;;;;;;;41.28;26.92;;;2.30;99.90;;;1.73;100.00;98663.84;5003946;28;20073;-73
2022/03/24 06:31:56;;;;;;;40.42;23.30;;;2.50;99.90;;;2.01;100.00;98653.91;5005338;28;20123;-74
2022/03/24 06:34:25;;;;;;;45.83;25.00;;;2.70;99.90;;;2.25;100.00;98659.19;5002544;28;20502;-73
2022/03/24 06:36:54;;;;;;;44.95;24.95;;;2.90;99.90;;;2.36;100.00;98653.31;4998189;28;20061;-75
2022/03/24 06:39:22;;;;;;;43.08;24.45;;;3.20;99.90;;;2.42;100.00;98650.81;5013907;28;20093;-74
2022/03/24 06:41:49;;;;;;;36.95;22.60;;;3.30;99.90;;;2.80;100.00;98642.47;5001825;28;20085;-73
2022/03/24 06:44:18;;;;;;;45.08;24.85;;;3.50;99.90;;;2.83;100.00;98651.06;5001843;28;20562;-74
2022/03/24 06:46:45;;;;;;;42.70;21.27;;;3.70;99.90;;;2.96;100.00;98646.00;5012264;28;20081;-74
2022/03/24 06:49:12;;;;;;;40.00;21.77;;;3.80;99.90;;;3.09;100.00;98646.03;4993734;28;20137;-74
2022/03/24 06:51:39;;;;;;;35.42;20.50;;;4.00;99.90;;;3.17;100.00;98648.66;4997534;28;20728;-74
2022/03/24 06:54:07;;;;;;;31.35;19.27;;;4.20;99.90;;;3.50;100.00;98645.34;5001087;28;20080;-74
2022/03/24 06:56:34;;;;;;;36.33;21.85;;;4.30;99.90;;;3.37;100.00;98655.56;5001179;28;20051;-74
2022/03/24 06:59:01;;;;;;;36.95;22.50;;;4.30;99.90;;;3.37;100.00;98646.16;4991175;28;20114;-73
2022/03/24 07:01:28;;;;;;;35.35;20.52;;;4.50;99.90;;;3.53;100.00;98647.91;4997649;28;20093;-73
2022/03/24 07:03:55;;;;;;;35.40;21.73;;;4.60;99.90;;;3.62;100.00;98652.22;5001379;28;20500;-73
2022/03/24 07:06:22;;;;;;;41.15;23.33;;;4.70;99.90;;;3.83;100.00;98653.09;5000003;28;20050;-73
2022/03/24 07:08:49;;;;;;;36.47;22.02;;;4.90;99.90;;;4.04;100.00;98650.59;4998657;28;20141;-73
2022/03/24 07:11:16;;;;;;;38.50;21.58;;;5.00;99.90;;;4.41;100.00;98653.16;5016531;28;20129;-73
2022/03/24 07:13:44;;;;;;;36.85;19.88;;;5.30;99.90;;;4.46;100.00;98648.00;4999462;28;20508;-74
2022/03/24 07:16:11;;;;;;;37.45;22.50;;;5.50;99.90;;;4.72;100.00;98653.09;4996650;28;20125;-74
2022/03/24 07:18:38;;;;;;;35.08;20.95;;;5.60;99.90;;;4.91;100.00;98651.34;4999739;28;20092;-74
2022/03/24 07:21:06;;;;;;;34.78;19.80;;;5.80;99.90;;;5.18;100.00;98643.53;4999582;28;20482;-75
2022/03/24 07:23:33;;;;;;;33.30;19.40;;;6.00;99.90;;;5.43;100.00;98643.44;5002841;28;20053;-74
2022/03/24 07:26:01;;;;;;;36.58;19.77;;;6.20;99.90;;;5.71;100.00;98656.16;5004901;28;20149;-74
2022/03/24 07:28:28;;;;;;;36.95;19.55;;;6.50;99.90;;;5.96;100.00;98644.03;5003926;28;20053;-74
2022/03/24 07:30:55;;;;;;;34.17;19.15;;;6.80;99.90;;;6.39;100.00;98638.53;5003447;28;20069;-75
2022/03/24 07:33:22;;;;;;;38.92;21.30;;;7.10;99.90;;;6.88;100.00;98635.47;4999248;28;20417;-75
2022/03/24 07:35:50;;;;;;;42.72;20.58;;;7.40;99.90;;;7.28;100.00;98638.44;4998309;28;20133;-74
2022/03/24 07:38:17;;;;;;;35.83;19.83;;;7.80;99.90;;;7.59;100.00;98639.75;4999948;28;20148;-74
2022/03/24 07:40:50;;;;;;;38.92;20.52;;;8.20;99.90;;;7.99;100.00;98637.47;5004425;28;20410;-75
2022/03/24 07:43:17;;;;;;;36.53;20.15;;;8.60;99.90;;;8.29;100.00;98635.28;5006628;28;20081;-74
2022/03/24 07:45:47;;;;;;;37.83;20.63;;;8.90;99.90;;;8.62;100.00;98635.59;5004429;28;20517;-74
2022/03/24 07:48:17;;;;;;;39.00;20.00;;;9.20;99.90;;;8.92;100.00;98634.22;5008306;28;20042;-74
2022/03/24 07:50:47;;;;;;;36.92;20.98;;;9.50;99.90;;;9.20;100.00;98637.94;5003224;28;20062;-74
2022/03/24 07:53:14;;;;;;;35.25;19.20;;;9.80;99.90;;;9.48;100.00;98641.72;5005588;28;20157;-74
2022/03/24 07:55:43;;;;;;;37.03;21.60;;;10.10;99.90;;;9.68;100.00;98642.13;5002983;28;20065;-74
2022/03/24 07:58:12;;;;;;;37.85;20.67;;;10.40;99.90;;;9.96;100.00;98639.75;5000806;28;20096;-75
2022/03/24 08:00:40;;;;;;;36.90;20.50;;;10.70;99.90;;;10.20;100.00;98634.91;5002020;28;20054;-74
2022/03/24 08:03:20;;;;;;;41.25;21.20;;;11.00;99.90;;;10.46;100.00;98634.28;5006449;28;20060;-74
2022/03/24 08:05:49;;;;;;;35.65;21.90;;;11.40;99.60;;;10.73;100.00;98635.31;4999980;28;20054;-74
2022/03/24 08:08:18;;;;;;;36.28;21.52;;;11.80;99.10;;;11.13;100.00;98639.44;5005872;28;20081;-74
2022/03/24 08:10:48;;;;;;;36.45;21.33;;;12.20;96.30;;;11.83;100.00;98644.31;5006042;28;20504;-74
2022/03/24 08:13:17;;;;;;;39.50;22.63;;;12.60;94.70;;;12.20;100.00;98642.34;5000752;28;20109;-74
2022/03/24 08:15:45;;;;;;;38.53;23.55;;;13.00;93.80;;;12.65;100.00;98639.13;5003927;28;20430;-74
2022/03/24 08:18:14;;;;;;;36.60;23.80;;;13.40;91.70;;;13.13;100.00;98636.56;5005968;28;20176;-74
2022/03/24 08:20:44;;;;;;;35.75;21.77;;;13.70;89.60;;;13.97;100.00;98631.72;5002404;28;20050;-73
2022/03/24 08:23:13;;;;;;;42.25;24.50;;;14.00;90.00;;;13.87;97.09;98636.47;5016972;28;20081;-74
2022/03/24 08:25:44;;;;;;;34.00;23.15;;;14.30;84.60;;;14.94;97.36;98632.97;5004987;28;20202;-75
2022/03/24 08:28:12;;;;;;;36.67;24.05;;;14.70;85.60;;;15.07;92.52;98639.34;5002740;28;20049;-72
2022/03/24 08:30:46;;;;;;;41.58;25.38;;;14.90;82.10;;;15.33;92.06;98637.38;5003165;28;20096;-73
2022/03/24 08:33:13;;;;;;;36.72;24.67;;;15.30;81.50;;;15.78;91.97;98634.44;5005739;28;20503;-74
2022/03/24 08:35:43;;;;;;;32.33;23.58;;;15.60;80.70;;;16.47;88.71;98638.97;5007073;28;20045;-73
2022/03/24 08:38:10;;;;;;;37.13;25.30;;;15.80;79.50;;;16.09;87.57;98635.59;5002050;28;20403;-73
2022/03/24 08:40:38;;;;;;;32.85;24.13;;;16.20;77.30;;;16.89;84.13;98640.38;5008245;28;20077;-73
2022/03/24 08:43:05;;;;;;;34.35;24.15;;;16.40;75.50;;;16.81;82.77;98634.69;5003717;28;20145;-73
2022/03/24 08:45:32;;;;;;;35.33;24.73;;;16.50;74.50;;;16.38;80.86;98638.59;4998423;28;20086;-72
2022/03/24 08:47:59;;;;;;;32.83;24.52;;;16.40;73.30;;;16.79;80.69;98636.53;4999237;28;20060;-72
2022/03/24 08:50:26;;;;;;;37.22;25.08;;;16.50;73.20;;;16.63;80.83;98644.28;4997620;28;20065;-74
2022/03/24 08:52:55;;;;;;;32.10;23.88;;;16.60;72.80;;;17.27;80.61;98641.94;5005136;28;20078;-73
2022/03/24 08:55:22;;;;;;;39.03;24.15;;;16.70;72.70;;;17.52;77.83;98638.84;5002500;28;20071;-73
2022/03/24 08:57:50;;;;;;;39.80;25.83;;;16.90;72.00;;;17.67;75.80;98639.78;4996416;28;20146;-74
2022/03/24 09:00:17;;;;;;;38.97;25.52;;;17.00;71.40;;;17.50;77.66;98635.47;5005898;28;20394;-74
2022/03/24 09:02:51;;;;;;;33.85;23.63;;;17.20;71.50;;;17.88;74.23;98640.41;5004885;28;20085;-72
2022/03/24 09:05:18;;;;;;;35.08;25.02;;;17.40;70.70;;;18.28;73.29;98628.50;4995610;28;20062;-73
2022/03/24 09:07:46;;;;;;;34.97;23.25;;;17.60;70.00;;;18.52;73.63;98635.91;5008653;28;20149;-74
2022/03/24 09:10:15;;;;;;;31.23;24.38;;;17.80;70.40;;;17.67;72.31;98651.13;5005949;28;20052;-74
2022/03/24 09:12:47;;;;;;;30.50;22.85;;;17.90;68.50;;;18.63;68.62;98635.28;5004654;28;20653;-73
2022/03/24 09:15:18;;;;;;;34.33;25.20;;;18.20;68.50;;;17.94;72.27;98650.59;4993525;28;20049;-74
2022/03/24 09:17:47;;;;;;;;;;;18.20;68.70;;;18.12;71.26;98646.09;5002333;28;20137;-74
2022/03/24 09:20:23;;;;;;;32.25;22.90;;;18.20;68.00;;;17.74;71.24;98652.50;5003308;28;20004;-73
2022/03/24 09:22:50;;;;;;;36.58;26.30;;;18.20;67.70;;;17.58;71.71;98649.00;5002370;28;20088;-74
2022/03/24 09:25:21;;;;;;;36.72;27.80;;;18.30;66.70;;;17.39;71.88;98654.41;5014354;28;20089;-74
2022/03/24 09:27:48;;;;;;;38.75;27.75;;;18.20;66.90;;;17.55;74.55;98643.91;4989716;28;20084;-74
2022/03/24 09:30:18;;;;;;;36.65;26.10;;;18.10;67.90;;;17.46;75.09;98645.25;5003524;28;20092;-74
2022/03/24 09:32:47;;;;;;;34.70;25.20;;;18.00;68.00;;;17.40;75.33;98657.84;4997226;28;20429;-73
2022/03/24 09:35:15;;;;;;;34.97;23.98;;;18.00;67.80;;;18.28;75.84;98653.94;4998474;28;20073;-73
2022/03/24 09:37:43;;;;;;;39.72;23.60;;;18.10;68.80;;;18.45;73.40;98643.31;4997173;28;20077;-73
2022/03/24 09:40:11;;;;;;;38.92;24.85;;;18.20;68.00;;;17.91;71.40;98648.13;5004037;28;20074;-73
2022/03/24 09:42:40;;;;;;;30.58;23.45;;;18.00;66.70;;;18.28;72.58;98652.16;5001196;28;20046;-74
2022/03/24 09:45:11;;;;;;;34.10;23.33;;;18.30;67.80;;;18.88;69.14;98650.50;5004771;28;20077;-75
2022/03/24 09:47:39;;;;;;;35.80;23.80;;;18.50;66.90;;;19.35;70.75;98645.00;4994605;28;20058;-72
2022/03/24 09:50:09;;;;;;;35.65;25.52;;;18.80;67.30;;;18.01;65.84;98651.94;5001801;28;20353;-75
2022/03/24 09:52:37;;;;;;;41.58;24.98;;;18.30;64.40;;;17.73;70.24;98653.44;5000420;28;20140;-72
2022/03/24 09:55:06;;;;;;;34.83;23.60;;;18.30;65.70;;;18.16;71.89;98655.50;5004608;28;20129;-74
2022/03/24 09:57:33;;;;;;;34.58;24.10;;;18.60;67.10;;;18.67;70.26;98645.53;4985760;28;20141;-74
2022/03/24 10:00:02;;;;;;;35.45;24.48;;;18.90;66.30;;;18.04;68.80;98654.41;5013024;28;20088;-74
2022/03/24 10:02:29;;;;;;;31.75;22.65;;;19.00;64.20;;;18.92;66.91;98644.13;4999907;28;20153;-73
2022/03/24 10:05:01;;;;;;;34.75;21.88;;;18.90;65.70;;;19.55;63.13;98645.56;4997546;28;20046;-74
2022/03/24 10:07:45;;;;;;;33.40;23.05;;;19.10;63.90;;;19.47;65.45;98645.19;5005446;28;20046;-72
2022/03/24 10:10:34;;;;;;;37.17;21.85;;;19.40;64.80;;;18.88;60.16;98643.44;5013157;28;20050;-72
2022/03/24 10:13:02;;;;;;;32.90;22.60;;;19.30;62.20;;;19.48;64.44;98647.72;5004288;28;20077;-72